sensor_id;sensor_type;location;lat;lon;timestamp;P1;durP1;ratioP1;P2;durP2;ratioP2
4758;SDS011;2393;50.560;12.636;2022-07-17T00:00:46;5.90;;;0.57;;
4758;SDS011;2393;50.560;12.636;2022-07-17T00:03:15;1.17;;;0.60;;
4758;SDS011;2393;50.560;12.636;2022-07-17T00:05:44;1.47;;;0.83;;
4758;SDS011;2393;50.560;12.636;2022-07-17T00:08:12;0.90;;;0.50;;
4758;SDS011;2393;50.560;12.636;2022-07-17T00:10:43;4.70;;;0.60;;
4758;SDS011;2393;50.560;12.636;2022-07-17T00:13:11;1.33;;;0.70;;
4758;SDS011;2393;50.560;12.636;2022-07-17T00:15:39;2.00;;;0.80;;
4758;SDS011;2393;50.560;12.636;2022-07-17T00:18:09;4.60;;;0.90;;
4758;SDS011;2393;50.560;12.636;2022-07-17T00:20:37;2.10;;;1.00;;
4758;SDS011;2393;50.560;12.636;2022-07-17T00:23:05;6.53;;;0.50;;
4758;SDS011;2393;50.560;12.636;2022-07-17T00:25:33;1.17;;;0.70;;
4758;SDS011;2393;50.560;12.636;2022-07-17T00:28:01;0.80;;;0.60;;
4758;SDS011;2393;50.560;12.636;2022-07-17T00:30:30;2.00;;;0.90;;
4758;SDS011;2393;50.560;12.636;2022-07-17T00:32:58;0.60;;;0.60;;
4758;SDS011;2393;50.560;12.636;2022-07-17T00:35:27;1.27;;;0.43;;
4758;SDS011;2393;50.560;12.636;2022-07-17T00:37:55;1.10;;;0.63;;
4758;SDS011;2393;50.560;12.636;2022-07-17T00:40:24;2.83;;;0.73;;
4758;SDS011;2393;50.560;12.636;2022-07-17T00:42:52;2.40;;;0.70;;
4758;SDS011;2393;50.560;12.636;2022-07-17T00:45:20;2.10;;;0.70;;
4758;SDS011;2393;50.560;12.636;2022-07-17T00:47:55;2.37;;;0.80;;
4758;SDS011;2393;50.560;12.636;2022-07-17T00:50:26;1.00;;;0.87;;
4758;SDS011;2393;50.560;12.636;2022-07-17T00:52:56;3.33;;;0.90;;
4758;SDS011;2393;50.560;12.636;2022-07-17T00:55:24;1.23;;;0.87;;
4758;SDS011;2393;50.560;12.636;2022-07-17T00:58:11;0.80;;;0.80;;
4758;SDS011;2393;50.560;12.636;2022-07-17T01:00:44;1.27;;;0.60;;
4758;SDS011;2393;50.560;12.636;2022-07-17T01:03:13;2.83;;;0.73;;
4758;SDS011;2393;50.560;12.636;2022-07-17T01:05:43;0.80;;;0.60;;
4758;SDS011;2393;50.560;12.636;2022-07-17T01:08:12;1.37;;;0.60;;
4758;SDS011;2393;50.560;12.636;2022-07-17T01:10:41;0.77;;;0.77;;
4758;SDS011;2393;50.560;12.636;2022-07-17T01:13:09;4.93;;;0.70;;
4758;SDS011;2393;50.560;12.636;2022-07-17T01:15:40;1.23;;;0.40;;
4758;SDS011;2393;50.560;12.636;2022-07-17T01:18:09;1.90;;;0.80;;
4758;SDS011;2393;50.560;12.636;2022-07-17T01:20:40;0.80;;;0.77;;
4758;SDS011;2393;50.560;12.636;2022-07-17T01:23:11;2.27;;;0.77;;
4758;SDS011;2393;50.560;12.636;2022-07-17T01:25:42;2.60;;;0.80;;
4758;SDS011;2393;50.560;12.636;2022-07-17T01:28:10;2.73;;;0.90;;
4758;SDS011;2393;50.560;12.636;2022-07-17T01:30:44;4.33;;;1.80;;
4758;SDS011;2393;50.560;12.636;2022-07-17T01:33:13;0.60;;;0.60;;
4758;SDS011;2393;50.560;12.636;2022-07-17T01:35:42;1.70;;;0.93;;
4758;SDS011;2393;50.560;12.636;2022-07-17T01:38:12;1.33;;;0.60;;
4758;SDS011;2393;50.560;12.636;2022-07-17T01:40:40;3.33;;;0.70;;
4758;SDS011;2393;50.560;12.636;2022-07-17T01:43:08;0.63;;;0.50;;
4758;SDS011;2393;50.560;12.636;2022-07-17T01:45:36;0.50;;;0.50;;
4758;SDS011;2393;50.560;12.636;2022-07-17T01:48:05;2.10;;;0.53;;
4758;SDS011;2393;50.560;12.636;2022-07-17T01:50:33;0.47;;;0.47;;
4758;SDS011;2393;50.560;12.636;2022-07-17T01:53:01;1.83;;;0.90;;
4758;SDS011;2393;50.560;12.636;2022-07-17T01:55:31;0.97;;;0.40;;
4758;SDS011;2393;50.560;12.636;2022-07-17T01:57:59;0.73;;;0.70;;
4758;SDS011;2393;50.560;12.636;2022-07-17T02:00:27;0.77;;;0.77;;
4758;SDS011;2393;50.560;12.636;2022-07-17T02:02:55;3.80;;;2.10;;
4758;SDS011;2393;50.560;12.636;2022-07-17T02:05:23;2.33;;;0.67;;
4758;SDS011;2393;50.560;12.636;2022-07-17T02:07:51;3.20;;;1.47;;
4758;SDS011;2393;50.560;12.636;2022-07-17T02:10:19;1.80;;;0.80;;
4758;SDS011;2393;50.560;12.636;2022-07-17T02:12:48;1.60;;;0.60;;
4758;SDS011;2393;50.560;12.636;2022-07-17T02:15:16;1.00;;;0.70;;
4758;SDS011;2393;50.560;12.636;2022-07-17T02:17:44;0.80;;;0.73;;
4758;SDS011;2393;50.560;12.636;2022-07-17T02:20:14;0.77;;;0.67;;
4758;SDS011;2393;50.560;12.636;2022-07-17T02:22:42;1.73;;;0.80;;
4758;SDS011;2393;50.560;12.636;2022-07-17T02:25:11;1.93;;;0.70;;
4758;SDS011;2393;50.560;12.636;2022-07-17T02:27:40;4.67;;;0.97;;
4758;SDS011;2393;50.560;12.636;2022-07-17T02:30:10;1.13;;;0.80;;
4758;SDS011;2393;50.560;12.636;2022-07-17T02:32:40;3.13;;;0.60;;
4758;SDS011;2393;50.560;12.636;2022-07-17T02:35:09;2.30;;;0.80;;
4758;SDS011;2393;50.560;12.636;2022-07-17T02:37:38;4.33;;;0.70;;
4758;SDS011;2393;50.560;12.636;2022-07-17T02:40:08;0.70;;;0.70;;
4758;SDS011;2393;50.560;12.636;2022-07-17T02:42:38;0.83;;;0.83;;
4758;SDS011;2393;50.560;12.636;2022-07-17T02:45:06;1.07;;;0.70;;
4758;SDS011;2393;50.560;12.636;2022-07-17T02:47:37;0.75;;;0.75;;
4758;SDS011;2393;50.560;12.636;2022-07-17T02:50:06;1.02;;;0.90;;
4758;SDS011;2393;50.560;12.636;2022-07-17T02:52:35;0.90;;;0.90;;
4758;SDS011;2393;50.560;12.636;2022-07-17T02:55:04;3.23;;;0.60;;
4758;SDS011;2393;50.560;12.636;2022-07-17T02:57:33;3.85;;;1.20;;
4758;SDS011;2393;50.560;12.636;2022-07-17T03:00:01;1.40;;;0.75;;
4758;SDS011;2393;50.560;12.636;2022-07-17T03:02:29;5.63;;;0.80;;
4758;SDS011;2393;50.560;12.636;2022-07-17T03:04:58;2.83;;;0.70;;
4758;SDS011;2393;50.560;12.636;2022-07-17T03:07:27;1.27;;;0.77;;
4758;SDS011;2393;50.560;12.636;2022-07-17T03:09:55;1.33;;;0.90;;
4758;SDS011;2393;50.560;12.636;2022-07-17T03:12:23;0.63;;;0.60;;
4758;SDS011;2393;50.560;12.636;2022-07-17T03:14:51;0.77;;;0.77;;
4758;SDS011;2393;50.560;12.636;2022-07-17T03:17:19;0.88;;;0.60;;
4758;SDS011;2393;50.560;12.636;2022-07-17T03:19:47;1.50;;;1.10;;
4758;SDS011;2393;50.560;12.636;2022-07-17T03:22:17;1.70;;;0.77;;
4758;SDS011;2393;50.560;12.636;2022-07-17T03:24:45;1.43;;;0.77;;
4758;SDS011;2393;50.560;12.636;2022-07-17T03:27:13;1.60;;;0.80;;
4758;SDS011;2393;50.560;12.636;2022-07-17T03:29:42;0.63;;;0.63;;
4758;SDS011;2393;50.560;12.636;2022-07-17T03:32:10;1.00;;;1.00;;
4758;SDS011;2393;50.560;12.636;2022-07-17T03:34:38;0.90;;;0.83;;
4758;SDS011;2393;50.560;12.636;2022-07-17T03:37:06;1.03;;;0.67;;
4758;SDS011;2393;50.560;12.636;2022-07-17T03:39:36;1.90;;;0.80;;
4758;SDS011;2393;50.560;12.636;2022-07-17T03:42:04;2.45;;;0.82;;
4758;SDS011;2393;50.560;12.636;2022-07-17T03:44:32;1.03;;;0.93;;
4758;SDS011;2393;50.560;12.636;2022-07-17T03:47:00;0.57;;;0.57;;
4758;SDS011;2393;50.560;12.636;2022-07-17T03:49:28;2.10;;;0.60;;
4758;SDS011;2393;50.560;12.636;2022-07-17T03:51:56;0.90;;;0.80;;
4758;SDS011;2393;50.560;12.636;2022-07-17T03:54:24;1.05;;;0.63;;
4758;SDS011;2393;50.560;12.636;2022-07-17T03:56:53;1.17;;;0.73;;
4758;SDS011;2393;50.560;12.636;2022-07-17T03:59:21;0.60;;;0.60;;
4758;SDS011;2393;50.560;12.636;2022-07-17T04:01:49;1.48;;;0.82;;
4758;SDS011;2393;50.560;12.636;2022-07-17T04:04:17;2.90;;;0.80;;
4758;SDS011;2393;50.560;12.636;2022-07-17T04:06:45;0.50;;;0.47;;
4758;SDS011;2393;50.560;12.636;2022-07-17T04:09:13;1.70;;;0.98;;
4758;SDS011;2393;50.560;12.636;2022-07-17T04:11:47;0.90;;;0.80;;
4758;SDS011;2393;50.560;12.636;2022-07-17T04:14:16;2.40;;;1.20;;
4758;SDS011;2393;50.560;12.636;2022-07-17T04:16:44;5.60;;;0.90;;
4758;SDS011;2393;50.560;12.636;2022-07-17T04:19:12;0.70;;;0.70;;
4758;SDS011;2393;50.560;12.636;2022-07-17T04:21:40;1.40;;;0.70;;
4758;SDS011;2393;50.560;12.636;2022-07-17T04:24:08;1.60;;;1.00;;
4758;SDS011;2393;50.560;12.636;2022-07-17T04:26:36;1.67;;;0.73;;
4758;SDS011;2393;50.560;12.636;2022-07-17T04:29:04;2.63;;;1.00;;
4758;SDS011;2393;50.560;12.636;2022-07-17T04:31:34;1.17;;;0.80;;
4758;SDS011;2393;50.560;12.636;2022-07-17T04:34:02;1.67;;;1.10;;
4758;SDS011;2393;50.560;12.636;2022-07-17T04:36:30;1.60;;;0.80;;
4758;SDS011;2393;50.560;12.636;2022-07-17T04:38:58;0.80;;;0.80;;
4758;SDS011;2393;50.560;12.636;2022-07-17T04:41:26;2.97;;;0.90;;
4758;SDS011;2393;50.560;12.636;2022-07-17T04:43:54;4.03;;;1.13;;
4758;SDS011;2393;50.560;12.636;2022-07-17T04:46:22;0.90;;;0.70;;
4758;SDS011;2393;50.560;12.636;2022-07-17T04:48:52;0.90;;;0.70;;
4758;SDS011;2393;50.560;12.636;2022-07-17T04:51:20;0.70;;;0.67;;
4758;SDS011;2393;50.560;12.636;2022-07-17T04:53:48;1.53;;;1.00;;
4758;SDS011;2393;50.560;12.636;2022-07-17T04:56:16;3.20;;;1.07;;
4758;SDS011;2393;50.560;12.636;2022-07-17T04:58:44;3.07;;;0.93;;
4758;SDS011;2393;50.560;12.636;2022-07-17T05:01:12;2.00;;;0.90;;
4758;SDS011;2393;50.560;12.636;2022-07-17T05:03:40;0.70;;;0.50;;
4758;SDS011;2393;50.560;12.636;2022-07-17T05:06:09;1.40;;;0.60;;
4758;SDS011;2393;50.560;12.636;2022-07-17T05:08:37;1.30;;;0.70;;
4758;SDS011;2393;50.560;12.636;2022-07-17T05:11:05;1.07;;;0.50;;
4758;SDS011;2393;50.560;12.636;2022-07-17T05:13:33;0.30;;;0.30;;
4758;SDS011;2393;50.560;12.636;2022-07-17T05:16:01;0.40;;;0.40;;
4758;SDS011;2393;50.560;12.636;2022-07-17T05:18:30;0.60;;;0.60;;
4758;SDS011;2393;50.560;12.636;2022-07-17T05:20:58;1.40;;;0.60;;
4758;SDS011;2393;50.560;12.636;2022-07-17T05:23:27;3.10;;;0.90;;
4758;SDS011;2393;50.560;12.636;2022-07-17T05:25:55;4.83;;;0.70;;
4758;SDS011;2393;50.560;12.636;2022-07-17T05:28:23;1.60;;;0.50;;
4758;SDS011;2393;50.560;12.636;2022-07-17T05:30:51;1.67;;;0.80;;
4758;SDS011;2393;50.560;12.636;2022-07-17T05:33:19;1.93;;;0.67;;
4758;SDS011;2393;50.560;12.636;2022-07-17T05:35:47;1.33;;;0.70;;
4758;SDS011;2393;50.560;12.636;2022-07-17T05:38:15;2.47;;;0.70;;
4758;SDS011;2393;50.560;12.636;2022-07-17T05:40:44;2.50;;;0.93;;
4758;SDS011;2393;50.560;12.636;2022-07-17T05:43:12;2.50;;;0.53;;
4758;SDS011;2393;50.560;12.636;2022-07-17T05:45:40;0.97;;;0.60;;
4758;SDS011;2393;50.560;12.636;2022-07-17T05:48:08;0.90;;;0.83;;
4758;SDS011;2393;50.560;12.636;2022-07-17T05:50:36;3.00;;;1.17;;
4758;SDS011;2393;50.560;12.636;2022-07-17T05:53:05;9.53;;;2.50;;
4758;SDS011;2393;50.560;12.636;2022-07-17T05:55:33;39.40;;;8.87;;
4758;SDS011;2393;50.560;12.636;2022-07-17T05:58:02;51.60;;;10.43;;
4758;SDS011;2393;50.560;12.636;2022-07-17T06:00:30;15.67;;;5.20;;
4758;SDS011;2393;50.560;12.636;2022-07-17T06:02:58;15.60;;;5.03;;
4758;SDS011;2393;50.560;12.636;2022-07-17T06:05:26;25.53;;;9.83;;
4758;SDS011;2393;50.560;12.636;2022-07-17T06:07:55;26.93;;;9.37;;
4758;SDS011;2393;50.560;12.636;2022-07-17T06:10:23;25.13;;;7.83;;
4758;SDS011;2393;50.560;12.636;2022-07-17T06:12:52;25.03;;;7.30;;
4758;SDS011;2393;50.560;12.636;2022-07-17T06:15:22;3.90;;;1.00;;
4758;SDS011;2393;50.560;12.636;2022-07-17T06:17:50;5.70;;;1.33;;
4758;SDS011;2393;50.560;12.636;2022-07-17T06:20:19;12.73;;;1.03;;
4758;SDS011;2393;50.560;12.636;2022-07-17T06:22:47;4.70;;;1.40;;
4758;SDS011;2393;50.560;12.636;2022-07-17T06:25:15;1.13;;;0.50;;
4758;SDS011;2393;50.560;12.636;2022-07-17T06:27:43;1.00;;;0.70;;
4758;SDS011;2393;50.560;12.636;2022-07-17T06:30:12;1.53;;;0.80;;
4758;SDS011;2393;50.560;12.636;2022-07-17T06:32:42;0.97;;;0.70;;
4758;SDS011;2393;50.560;12.636;2022-07-17T06:35:11;7.43;;;1.00;;
4758;SDS011;2393;50.560;12.636;2022-07-17T06:37:39;2.50;;;0.50;;
4758;SDS011;2393;50.560;12.636;2022-07-17T06:40:07;1.10;;;0.73;;
4758;SDS011;2393;50.560;12.636;2022-07-17T06:42:35;8.60;;;1.03;;
4758;SDS011;2393;50.560;12.636;2022-07-17T06:45:03;3.03;;;0.80;;
4758;SDS011;2393;50.560;12.636;2022-07-17T06:47:32;11.70;;;1.30;;
4758;SDS011;2393;50.560;12.636;2022-07-17T06:50:01;1.63;;;0.80;;
4758;SDS011;2393;50.560;12.636;2022-07-17T06:52:30;3.37;;;1.10;;
4758;SDS011;2393;50.560;12.636;2022-07-17T06:54:59;3.80;;;0.90;;
4758;SDS011;2393;50.560;12.636;2022-07-17T06:57:27;0.83;;;0.80;;
4758;SDS011;2393;50.560;12.636;2022-07-17T06:59:55;3.57;;;0.57;;
4758;SDS011;2393;50.560;12.636;2022-07-17T07:02:22;0.53;;;0.40;;
4758;SDS011;2393;50.560;12.636;2022-07-17T07:04:50;3.40;;;0.80;;
4758;SDS011;2393;50.560;12.636;2022-07-17T07:07:20;2.03;;;0.73;;
4758;SDS011;2393;50.560;12.636;2022-07-17T07:09:48;16.07;;;0.63;;
4758;SDS011;2393;50.560;12.636;2022-07-17T07:12:16;2.50;;;0.70;;
4758;SDS011;2393;50.560;12.636;2022-07-17T07:14:45;3.90;;;0.33;;
4758;SDS011;2393;50.560;12.636;2022-07-17T07:17:12;7.40;;;0.40;;
4758;SDS011;2393;50.560;12.636;2022-07-17T07:19:40;1.93;;;0.53;;
4758;SDS011;2393;50.560;12.636;2022-07-17T07:22:08;4.83;;;0.70;;
4758;SDS011;2393;50.560;12.636;2022-07-17T07:24:38;2.10;;;0.63;;
4758;SDS011;2393;50.560;12.636;2022-07-17T07:27:07;1.27;;;0.50;;
4758;SDS011;2393;50.560;12.636;2022-07-17T07:29:35;1.47;;;0.40;;
4758;SDS011;2393;50.560;12.636;2022-07-17T07:32:03;2.50;;;0.30;;
4758;SDS011;2393;50.560;12.636;2022-07-17T07:34:33;2.30;;;0.60;;
4758;SDS011;2393;50.560;12.636;2022-07-17T07:37:01;5.50;;;1.17;;
4758;SDS011;2393;50.560;12.636;2022-07-17T07:39:29;8.80;;;0.50;;
4758;SDS011;2393;50.560;12.636;2022-07-17T07:41:58;6.03;;;1.00;;
4758;SDS011;2393;50.560;12.636;2022-07-17T07:44:27;4.83;;;0.57;;
4758;SDS011;2393;50.560;12.636;2022-07-17T07:46:58;3.17;;;0.73;;
4758;SDS011;2393;50.560;12.636;2022-07-17T07:49:26;0.93;;;0.40;;
4758;SDS011;2393;50.560;12.636;2022-07-17T07:51:54;2.03;;;0.43;;
4758;SDS011;2393;50.560;12.636;2022-07-17T07:54:30;2.10;;;0.53;;
4758;SDS011;2393;50.560;12.636;2022-07-17T07:57:00;1.53;;;0.53;;
4758;SDS011;2393;50.560;12.636;2022-07-17T07:59:28;3.07;;;0.80;;
4758;SDS011;2393;50.560;12.636;2022-07-17T08:01:59;1.60;;;0.47;;
4758;SDS011;2393;50.560;12.636;2022-07-17T08:04:27;3.53;;;0.70;;
4758;SDS011;2393;50.560;12.636;2022-07-17T08:06:55;3.43;;;0.57;;
4758;SDS011;2393;50.560;12.636;2022-07-17T08:09:23;3.90;;;0.60;;
4758;SDS011;2393;50.560;12.636;2022-07-17T08:11:51;0.83;;;0.40;;
4758;SDS011;2393;50.560;12.636;2022-07-17T08:14:21;2.00;;;0.47;;
4758;SDS011;2393;50.560;12.636;2022-07-17T08:16:49;8.03;;;0.70;;
4758;SDS011;2393;50.560;12.636;2022-07-17T08:19:17;2.60;;;0.53;;
4758;SDS011;2393;50.560;12.636;2022-07-17T08:21:45;2.40;;;0.60;;
4758;SDS011;2393;50.560;12.636;2022-07-17T08:24:13;2.50;;;0.60;;
4758;SDS011;2393;50.560;12.636;2022-07-17T08:26:42;2.40;;;0.67;;
4758;SDS011;2393;50.560;12.636;2022-07-17T08:29:10;1.90;;;0.40;;
4758;SDS011;2393;50.560;12.636;2022-07-17T08:31:39;1.93;;;0.53;;
4758;SDS011;2393;50.560;12.636;2022-07-17T08:34:07;3.40;;;0.93;;
4758;SDS011;2393;50.560;12.636;2022-07-17T08:36:36;3.33;;;0.70;;
4758;SDS011;2393;50.560;12.636;2022-07-17T08:39:04;0.40;;;0.40;;
4758;SDS011;2393;50.560;12.636;2022-07-17T08:41:32;2.00;;;0.63;;
4758;SDS011;2393;50.560;12.636;2022-07-17T08:44:03;7.93;;;0.97;;
4758;SDS011;2393;50.560;12.636;2022-07-17T08:46:32;4.97;;;0.60;;
4758;SDS011;2393;50.560;12.636;2022-07-17T08:49:04;3.50;;;0.53;;
4758;SDS011;2393;50.560;12.636;2022-07-17T08:51:33;6.50;;;0.60;;
4758;SDS011;2393;50.560;12.636;2022-07-17T08:54:08;1.90;;;0.57;;
4758;SDS011;2393;50.560;12.636;2022-07-17T08:56:36;4.93;;;0.60;;
4758;SDS011;2393;50.560;12.636;2022-07-17T08:59:04;4.40;;;0.97;;
4758;SDS011;2393;50.560;12.636;2022-07-17T09:01:32;6.70;;;0.50;;
4758;SDS011;2393;50.560;12.636;2022-07-17T09:04:00;5.93;;;0.60;;
4758;SDS011;2393;50.560;12.636;2022-07-17T09:06:34;1.83;;;0.47;;
4758;SDS011;2393;50.560;12.636;2022-07-17T09:09:03;2.67;;;0.67;;
4758;SDS011;2393;50.560;12.636;2022-07-17T09:11:43;1.17;;;0.70;;
4758;SDS011;2393;50.560;12.636;2022-07-17T09:14:12;2.67;;;0.63;;
4758;SDS011;2393;50.560;12.636;2022-07-17T09:16:48;0.60;;;0.40;;
4758;SDS011;2393;50.560;12.636;2022-07-17T09:19:24;0.87;;;0.60;;
4758;SDS011;2393;50.560;12.636;2022-07-17T09:22:04;1.33;;;0.50;;
4758;SDS011;2393;50.560;12.636;2022-07-17T09:24:40;5.20;;;0.57;;
4758;SDS011;2393;50.560;12.636;2022-07-17T09:27:11;1.90;;;0.63;;
4758;SDS011;2393;50.560;12.636;2022-07-17T09:29:53;0.57;;;0.33;;
4758;SDS011;2393;50.560;12.636;2022-07-17T09:32:24;1.37;;;0.30;;
4758;SDS011;2393;50.560;12.636;2022-07-17T09:34:53;1.80;;;0.50;;
4758;SDS011;2393;50.560;12.636;2022-07-17T09:37:24;0.60;;;0.50;;
4758;SDS011;2393;50.560;12.636;2022-07-17T09:39:53;2.27;;;0.50;;
4758;SDS011;2393;50.560;12.636;2022-07-17T09:42:24;1.47;;;0.60;;
4758;SDS011;2393;50.560;12.636;2022-07-17T09:44:54;2.30;;;0.60;;
4758;SDS011;2393;50.560;12.636;2022-07-17T09:47:23;1.73;;;0.70;;
4758;SDS011;2393;50.560;12.636;2022-07-17T09:49:52;1.23;;;0.40;;
4758;SDS011;2393;50.560;12.636;2022-07-17T09:52:21;1.13;;;0.60;;
4758;SDS011;2393;50.560;12.636;2022-07-17T09:54:53;1.00;;;0.47;;
4758;SDS011;2393;50.560;12.636;2022-07-17T09:57:41;0.93;;;0.43;;
4758;SDS011;2393;50.560;12.636;2022-07-17T10:00:11;1.17;;;0.50;;
4758;SDS011;2393;50.560;12.636;2022-07-17T10:02:45;1.00;;;0.50;;
4758;SDS011;2393;50.560;12.636;2022-07-17T10:05:13;1.43;;;0.50;;
4758;SDS011;2393;50.560;12.636;2022-07-17T10:07:44;2.53;;;0.80;;
4758;SDS011;2393;50.560;12.636;2022-07-17T10:10:14;0.67;;;0.57;;
4758;SDS011;2393;50.560;12.636;2022-07-17T10:12:44;2.13;;;0.33;;
4758;SDS011;2393;50.560;12.636;2022-07-17T10:15:16;0.60;;;0.30;;
4758;SDS011;2393;50.560;12.636;2022-07-17T10:17:46;4.07;;;0.70;;
4758;SDS011;2393;50.560;12.636;2022-07-17T10:20:23;2.10;;;1.00;;
4758;SDS011;2393;50.560;12.636;2022-07-17T10:22:53;0.70;;;0.50;;
4758;SDS011;2393;50.560;12.636;2022-07-17T10:25:22;2.70;;;0.53;;
4758;SDS011;2393;50.560;12.636;2022-07-17T10:27:51;2.20;;;0.60;;
4758;SDS011;2393;50.560;12.636;2022-07-17T10:30:22;1.57;;;0.40;;
4758;SDS011;2393;50.560;12.636;2022-07-17T10:32:53;0.40;;;0.30;;
4758;SDS011;2393;50.560;12.636;2022-07-17T10:35:22;2.03;;;0.47;;
4758;SDS011;2393;50.560;12.636;2022-07-17T10:37:50;1.23;;;0.40;;
4758;SDS011;2393;50.560;12.636;2022-07-17T10:40:20;5.73;;;0.93;;
4758;SDS011;2393;50.560;12.636;2022-07-17T10:42:56;2.13;;;0.70;;
4758;SDS011;2393;50.560;12.636;2022-07-17T10:45:28;2.47;;;0.60;;
4758;SDS011;2393;50.560;12.636;2022-07-17T10:48:00;0.70;;;0.53;;
4758;SDS011;2393;50.560;12.636;2022-07-17T10:50:31;3.60;;;0.53;;
4758;SDS011;2393;50.560;12.636;2022-07-17T10:53:07;0.50;;;0.50;;
4758;SDS011;2393;50.560;12.636;2022-07-17T10:55:40;1.03;;;0.37;;
4758;SDS011;2393;50.560;12.636;2022-07-17T10:58:20;1.63;;;0.40;;
4758;SDS011;2393;50.560;12.636;2022-07-17T11:00:56;1.00;;;0.73;;
4758;SDS011;2393;50.560;12.636;2022-07-17T11:03:26;2.30;;;0.77;;
4758;SDS011;2393;50.560;12.636;2022-07-17T11:05:54;1.27;;;0.40;;
4758;SDS011;2393;50.560;12.636;2022-07-17T11:08:22;3.47;;;0.50;;
4758;SDS011;2393;50.560;12.636;2022-07-17T11:10:51;2.50;;;0.80;;
4758;SDS011;2393;50.560;12.636;2022-07-17T11:13:20;5.10;;;0.70;;
4758;SDS011;2393;50.560;12.636;2022-07-17T11:15:48;2.00;;;0.40;;
4758;SDS011;2393;50.560;12.636;2022-07-17T11:18:17;1.00;;;0.60;;
4758;SDS011;2393;50.560;12.636;2022-07-17T11:20:47;1.93;;;0.40;;
4758;SDS011;2393;50.560;12.636;2022-07-17T11:23:16;2.30;;;0.57;;
4758;SDS011;2393;50.560;12.636;2022-07-17T11:25:57;2.40;;;0.57;;
4758;SDS011;2393;50.560;12.636;2022-07-17T11:28:30;2.00;;;0.50;;
4758;SDS011;2393;50.560;12.636;2022-07-17T11:31:04;1.23;;;0.40;;
4758;SDS011;2393;50.560;12.636;2022-07-17T11:33:50;10.10;;;0.70;;
4758;SDS011;2393;50.560;12.636;2022-07-17T11:36:21;0.80;;;0.50;;
4758;SDS011;2393;50.560;12.636;2022-07-17T11:38:51;2.77;;;0.50;;
4758;SDS011;2393;50.560;12.636;2022-07-17T11:41:29;4.47;;;0.80;;
4758;SDS011;2393;50.560;12.636;2022-07-17T11:43:58;1.13;;;0.30;;
4758;SDS011;2393;50.560;12.636;2022-07-17T11:46:28;1.07;;;0.50;;
4758;SDS011;2393;50.560;12.636;2022-07-17T11:48:58;2.83;;;0.53;;
4758;SDS011;2393;50.560;12.636;2022-07-17T11:51:33;9.50;;;0.70;;
4758;SDS011;2393;50.560;12.636;2022-07-17T11:54:03;2.20;;;0.33;;
4758;SDS011;2393;50.560;12.636;2022-07-17T11:56:33;1.13;;;0.43;;
4758;SDS011;2393;50.560;12.636;2022-07-17T11:59:02;1.90;;;0.53;;
4758;SDS011;2393;50.560;12.636;2022-07-17T12:01:37;2.30;;;0.83;;
4758;SDS011;2393;50.560;12.636;2022-07-17T12:04:06;1.53;;;0.80;;
4758;SDS011;2393;50.560;12.636;2022-07-17T12:06:41;0.80;;;0.40;;
4758;SDS011;2393;50.560;12.636;2022-07-17T12:09:09;0.90;;;0.50;;
4758;SDS011;2393;50.560;12.636;2022-07-17T12:11:48;2.30;;;0.40;;
4758;SDS011;2393;50.560;12.636;2022-07-17T12:14:17;1.60;;;0.30;;
4758;SDS011;2393;50.560;12.636;2022-07-17T12:16:45;4.17;;;0.47;;
4758;SDS011;2393;50.560;12.636;2022-07-17T12:19:14;0.83;;;0.43;;
4758;SDS011;2393;50.560;12.636;2022-07-17T12:21:46;0.87;;;0.40;;
4758;SDS011;2393;50.560;12.636;2022-07-17T12:24:22;1.27;;;0.40;;
4758;SDS011;2393;50.560;12.636;2022-07-17T12:26:56;2.67;;;0.37;;
4758;SDS011;2393;50.560;12.636;2022-07-17T12:29:25;0.50;;;0.50;;
4758;SDS011;2393;50.560;12.636;2022-07-17T12:32:05;0.40;;;0.30;;
4758;SDS011;2393;50.560;12.636;2022-07-17T12:34:34;1.83;;;0.67;;
4758;SDS011;2393;50.560;12.636;2022-07-17T12:37:04;0.80;;;0.37;;
4758;SDS011;2393;50.560;12.636;2022-07-17T12:39:32;1.00;;;0.80;;
4758;SDS011;2393;50.560;12.636;2022-07-17T12:42:01;0.70;;;0.50;;
4758;SDS011;2393;50.560;12.636;2022-07-17T12:44:30;0.73;;;0.40;;
4758;SDS011;2393;50.560;12.636;2022-07-17T12:46:58;2.40;;;0.30;;
4758;SDS011;2393;50.560;12.636;2022-07-17T12:49:28;4.13;;;0.40;;
4758;SDS011;2393;50.560;12.636;2022-07-17T12:51:56;0.60;;;0.30;;
4758;SDS011;2393;50.560;12.636;2022-07-17T12:54:28;1.17;;;0.40;;
4758;SDS011;2393;50.560;12.636;2022-07-17T12:56:58;2.07;;;0.50;;
4758;SDS011;2393;50.560;12.636;2022-07-17T12:59:27;0.83;;;0.37;;
4758;SDS011;2393;50.560;12.636;2022-07-17T13:01:55;0.63;;;0.40;;
4758;SDS011;2393;50.560;12.636;2022-07-17T13:04:23;1.60;;;0.40;;
4758;SDS011;2393;50.560;12.636;2022-07-17T13:06:52;0.40;;;0.30;;
4758;SDS011;2393;50.560;12.636;2022-07-17T13:09:20;3.03;;;0.40;;
4758;SDS011;2393;50.560;12.636;2022-07-17T13:11:48;3.27;;;0.40;;
4758;SDS011;2393;50.560;12.636;2022-07-17T13:14:18;1.43;;;0.50;;
4758;SDS011;2393;50.560;12.636;2022-07-17T13:16:47;0.60;;;0.40;;
4758;SDS011;2393;50.560;12.636;2022-07-17T13:19:15;3.27;;;0.70;;
4758;SDS011;2393;50.560;12.636;2022-07-17T13:21:44;0.70;;;0.50;;
4758;SDS011;2393;50.560;12.636;2022-07-17T13:24:12;3.60;;;0.60;;
4758;SDS011;2393;50.560;12.636;2022-07-17T13:26:40;0.87;;;0.40;;
4758;SDS011;2393;50.560;12.636;2022-07-17T13:29:08;0.60;;;0.50;;
4758;SDS011;2393;50.560;12.636;2022-07-17T13:31:37;0.60;;;0.30;;
4758;SDS011;2393;50.560;12.636;2022-07-17T13:34:07;2.67;;;0.50;;
4758;SDS011;2393;50.560;12.636;2022-07-17T13:36:36;1.90;;;0.40;;
4758;SDS011;2393;50.560;12.636;2022-07-17T13:39:04;2.10;;;0.50;;
4758;SDS011;2393;50.560;12.636;2022-07-17T13:41:32;1.57;;;0.83;;
4758;SDS011;2393;50.560;12.636;2022-07-17T13:44:00;0.70;;;0.40;;
4758;SDS011;2393;50.560;12.636;2022-07-17T13:46:34;0.50;;;0.50;;
4758;SDS011;2393;50.560;12.636;2022-07-17T13:49:02;2.40;;;0.50;;
4758;SDS011;2393;50.560;12.636;2022-07-17T13:51:31;0.60;;;0.33;;
4758;SDS011;2393;50.560;12.636;2022-07-17T13:54:00;2.70;;;0.50;;
4758;SDS011;2393;50.560;12.636;2022-07-17T13:56:29;1.63;;;0.70;;
4758;SDS011;2393;50.560;12.636;2022-07-17T13:58:57;1.33;;;0.30;;
4758;SDS011;2393;50.560;12.636;2022-07-17T14:01:25;0.60;;;0.50;;
4758;SDS011;2393;50.560;12.636;2022-07-17T14:03:54;0.40;;;0.40;;
4758;SDS011;2393;50.560;12.636;2022-07-17T14:06:23;1.17;;;0.40;;
4758;SDS011;2393;50.560;12.636;2022-07-17T14:08:52;1.87;;;0.50;;
4758;SDS011;2393;50.560;12.636;2022-07-17T14:11:20;1.70;;;0.50;;
4758;SDS011;2393;50.560;12.636;2022-07-17T14:13:48;2.20;;;0.30;;
4758;SDS011;2393;50.560;12.636;2022-07-17T14:16:17;1.77;;;0.80;;
4758;SDS011;2393;50.560;12.636;2022-07-17T14:18:45;1.57;;;0.50;;
4758;SDS011;2393;50.560;12.636;2022-07-17T14:21:26;3.03;;;0.47;;
4758;SDS011;2393;50.560;12.636;2022-07-17T14:23:56;1.30;;;0.40;;
4758;SDS011;2393;50.560;12.636;2022-07-17T14:26:24;0.53;;;0.43;;
4758;SDS011;2393;50.560;12.636;2022-07-17T14:28:53;2.40;;;0.50;;
4758;SDS011;2393;50.560;12.636;2022-07-17T14:31:21;0.50;;;0.30;;
4758;SDS011;2393;50.560;12.636;2022-07-17T14:33:49;0.30;;;0.20;;
4758;SDS011;2393;50.560;12.636;2022-07-17T14:36:18;1.97;;;0.70;;
4758;SDS011;2393;50.560;12.636;2022-07-17T14:38:46;0.50;;;0.40;;
4758;SDS011;2393;50.560;12.636;2022-07-17T14:41:16;1.33;;;0.30;;
4758;SDS011;2393;50.560;12.636;2022-07-17T14:43:46;5.43;;;0.43;;
4758;SDS011;2393;50.560;12.636;2022-07-17T14:46:15;3.07;;;0.63;;
4758;SDS011;2393;50.560;12.636;2022-07-17T14:48:43;1.03;;;0.30;;
4758;SDS011;2393;50.560;12.636;2022-07-17T14:51:11;3.33;;;0.70;;
4758;SDS011;2393;50.560;12.636;2022-07-17T14:53:39;2.10;;;0.50;;
4758;SDS011;2393;50.560;12.636;2022-07-17T14:56:07;0.57;;;0.20;;
4758;SDS011;2393;50.560;12.636;2022-07-17T14:58:38;0.70;;;0.50;;
4758;SDS011;2393;50.560;12.636;2022-07-17T15:01:07;1.13;;;0.33;;
4758;SDS011;2393;50.560;12.636;2022-07-17T15:03:35;2.70;;;0.80;;
4758;SDS011;2393;50.560;12.636;2022-07-17T15:06:03;2.57;;;0.83;;
4758;SDS011;2393;50.560;12.636;2022-07-17T15:08:31;2.10;;;0.53;;
4758;SDS011;2393;50.560;12.636;2022-07-17T15:10:59;3.27;;;0.60;;
4758;SDS011;2393;50.560;12.636;2022-07-17T15:13:27;7.20;;;0.53;;